Terminal Aerodrome Forecast
Issued by NWS Binghamton, NY

Home | Current Version | Previous Version | Text Only | Print | Product List | Glossary On
Versions: 1 2 3 4 5 6 7 8 9 10 11 12 13 14 15 16 17 18 19
734
FTUS41 KBGM 210538
TAFAVP
TAF
KAVP 210538Z 2106/2206 20004KT P6SM FEW250 WS020/22036KT
     FM211400 21009G15KT P6SM FEW250
     FM212300 19005KT P6SM FEW250=

USA.gov is the U.S. government's official web portal to all federal, state and local government web resources and services.